sensor_id;sensor_type;location;lat;lon;timestamp;P1;durP1;ratioP1;P2;durP2;ratioP2
49023;SDS011;34839;-33.872;151.172;2022-11-03T00:00:58;4.18;;;0.60;;
49023;SDS011;34839;-33.872;151.172;2022-11-03T00:03:25;3.20;;;0.30;;
49023;SDS011;34839;-33.872;151.172;2022-11-03T00:05:52;1.98;;;0.50;;
49023;SDS011;34839;-33.872;151.172;2022-11-03T00:08:36;3.30;;;0.47;;
49023;SDS011;34839;-33.872;151.172;2022-11-03T00:11:10;3.08;;;0.85;;
49023;SDS011;34839;-33.872;151.172;2022-11-03T00:13:39;3.00;;;0.50;;
49023;SDS011;34839;-33.872;151.172;2022-11-03T00:16:07;1.95;;;0.52;;
49023;SDS011;34839;-33.872;151.172;2022-11-03T00:18:34;6.75;;;0.68;;
49023;SDS011;34839;-33.872;151.172;2022-11-03T00:21:03;1.98;;;0.60;;
49023;SDS011;34839;-33.872;151.172;2022-11-03T00:23:31;1.48;;;0.47;;
49023;SDS011;34839;-33.872;151.172;2022-11-03T00:26:06;2.30;;;0.50;;
49023;SDS011;34839;-33.872;151.172;2022-11-03T00:28:34;1.70;;;0.40;;
49023;SDS011;34839;-33.872;151.172;2022-11-03T00:31:05;3.15;;;0.60;;
49023;SDS011;34839;-33.872;151.172;2022-11-03T00:33:32;1.02;;;0.20;;
49023;SDS011;34839;-33.872;151.172;2022-11-03T00:36:00;1.23;;;0.30;;
49023;SDS011;34839;-33.872;151.172;2022-11-03T00:38:28;2.97;;;0.38;;
49023;SDS011;34839;-33.872;151.172;2022-11-03T00:40:58;1.85;;;0.30;;
49023;SDS011;34839;-33.872;151.172;2022-11-03T00:43:26;1.75;;;0.40;;
49023;SDS011;34839;-33.872;151.172;2022-11-03T00:45:54;2.03;;;0.47;;
49023;SDS011;34839;-33.872;151.172;2022-11-03T00:48:21;1.20;;;0.30;;
49023;SDS011;34839;-33.872;151.172;2022-11-03T00:51:02;2.88;;;0.28;;
49023;SDS011;34839;-33.872;151.172;2022-11-03T00:53:31;1.35;;;0.30;;
49023;SDS011;34839;-33.872;151.172;2022-11-03T00:55:58;2.88;;;0.50;;
49023;SDS011;34839;-33.872;151.172;2022-11-03T00:58:26;2.75;;;0.50;;
49023;SDS011;34839;-33.872;151.172;2022-11-03T01:01:06;2.88;;;0.47;;
49023;SDS011;34839;-33.872;151.172;2022-11-03T01:03:34;4.05;;;0.70;;
49023;SDS011;34839;-33.872;151.172;2022-11-03T01:06:04;4.97;;;0.73;;
49023;SDS011;34839;-33.872;151.172;2022-11-03T01:08:49;3.35;;;0.50;;
49023;SDS011;34839;-33.872;151.172;2022-11-03T01:11:18;1.63;;;0.55;;
49023;SDS011;34839;-33.872;151.172;2022-11-03T01:14:05;3.10;;;0.50;;
49023;SDS011;34839;-33.872;151.172;2022-11-03T01:16:32;5.22;;;0.50;;
49023;SDS011;34839;-33.872;151.172;2022-11-03T01:18:59;1.27;;;0.30;;
49023;SDS011;34839;-33.872;151.172;2022-11-03T01:21:27;0.93;;;0.30;;
49023;SDS011;34839;-33.872;151.172;2022-11-03T01:23:54;1.45;;;0.40;;
49023;SDS011;34839;-33.872;151.172;2022-11-03T01:26:21;1.13;;;0.35;;
49023;SDS011;34839;-33.872;151.172;2022-11-03T01:28:48;2.03;;;0.50;;
49023;SDS011;34839;-33.872;151.172;2022-11-03T01:31:20;3.22;;;0.50;;
49023;SDS011;34839;-33.872;151.172;2022-11-03T01:33:51;0.40;;;0.20;;
49023;SDS011;34839;-33.872;151.172;2022-11-03T01:36:19;0.77;;;0.28;;
49023;SDS011;34839;-33.872;151.172;2022-11-03T01:38:46;1.75;;;0.38;;
49023;SDS011;34839;-33.872;151.172;2022-11-03T01:41:15;2.17;;;0.40;;
49023;SDS011;34839;-33.872;151.172;2022-11-03T01:43:43;4.75;;;0.30;;
49023;SDS011;34839;-33.872;151.172;2022-11-03T01:48:38;1.33;;;0.40;;
49023;SDS011;34839;-33.872;151.172;2022-11-03T01:51:06;3.15;;;0.43;;
49023;SDS011;34839;-33.872;151.172;2022-11-03T01:53:34;1.70;;;0.50;;
49023;SDS011;34839;-33.872;151.172;2022-11-03T01:56:03;2.17;;;0.28;;
49023;SDS011;34839;-33.872;151.172;2022-11-03T01:58:32;2.20;;;0.35;;
49023;SDS011;34839;-33.872;151.172;2022-11-03T02:01:00;1.90;;;0.50;;
49023;SDS011;34839;-33.872;151.172;2022-11-03T02:03:30;3.33;;;0.25;;
49023;SDS011;34839;-33.872;151.172;2022-11-03T02:05:59;0.95;;;0.13;;
49023;SDS011;34839;-33.872;151.172;2022-11-03T02:08:35;0.45;;;0.13;;
49023;SDS011;34839;-33.872;151.172;2022-11-03T02:11:04;1.58;;;0.35;;
49023;SDS011;34839;-33.872;151.172;2022-11-03T02:13:51;2.05;;;0.40;;
49023;SDS011;34839;-33.872;151.172;2022-11-03T02:16:18;2.88;;;0.52;;
49023;SDS011;34839;-33.872;151.172;2022-11-03T02:18:46;3.72;;;0.20;;
49023;SDS011;34839;-33.872;151.172;2022-11-03T02:24:10;1.92;;;0.30;;
49023;SDS011;34839;-33.872;151.172;2022-11-03T02:26:34;1.40;;;0.30;;
49023;SDS011;34839;-33.872;151.172;2022-11-03T02:29:01;1.73;;;0.35;;
49023;SDS011;34839;-33.872;151.172;2022-11-03T02:31:40;5.38;;;0.82;;
49023;SDS011;34839;-33.872;151.172;2022-11-03T02:34:26;2.15;;;0.30;;
49023;SDS011;34839;-33.872;151.172;2022-11-03T02:37:05;1.38;;;0.30;;
49023;SDS011;34839;-33.872;151.172;2022-11-03T02:39:35;1.70;;;0.40;;
49023;SDS011;34839;-33.872;151.172;2022-11-03T02:42:04;1.10;;;0.30;;
49023;SDS011;34839;-33.872;151.172;2022-11-03T02:44:33;3.08;;;0.45;;
49023;SDS011;34839;-33.872;151.172;2022-11-03T02:47:02;1.42;;;0.52;;
49023;SDS011;34839;-33.872;151.172;2022-11-03T02:49:31;1.23;;;0.30;;
49023;SDS011;34839;-33.872;151.172;2022-11-03T02:52:01;0.77;;;0.17;;
49023;SDS011;34839;-33.872;151.172;2022-11-03T02:54:30;2.65;;;0.25;;
49023;SDS011;34839;-33.872;151.172;2022-11-03T02:57:10;2.15;;;0.40;;
49023;SDS011;34839;-33.872;151.172;2022-11-03T02:59:44;3.17;;;0.35;;
49023;SDS011;34839;-33.872;151.172;2022-11-03T03:02:14;2.20;;;0.30;;
49023;SDS011;34839;-33.872;151.172;2022-11-03T03:04:49;1.80;;;0.20;;
49023;SDS011;34839;-33.872;151.172;2022-11-03T03:07:36;0.45;;;0.20;;
49023;SDS011;34839;-33.872;151.172;2022-11-03T03:10:07;0.80;;;0.20;;
49023;SDS011;34839;-33.872;151.172;2022-11-03T03:12:36;1.50;;;0.30;;
49023;SDS011;34839;-33.872;151.172;2022-11-03T03:15:06;1.38;;;0.20;;
49023;SDS011;34839;-33.872;151.172;2022-11-03T03:20:11;3.25;;;0.30;;
49023;SDS011;34839;-33.872;151.172;2022-11-03T03:22:43;2.78;;;0.40;;
49023;SDS011;34839;-33.872;151.172;2022-11-03T03:27:42;2.90;;;0.40;;
49023;SDS011;34839;-33.872;151.172;2022-11-03T03:30:12;1.40;;;0.20;;
49023;SDS011;34839;-33.872;151.172;2022-11-03T03:32:40;0.60;;;0.20;;
49023;SDS011;34839;-33.872;151.172;2022-11-03T03:35:11;1.10;;;0.20;;
49023;SDS011;34839;-33.872;151.172;2022-11-03T03:37:42;1.42;;;0.28;;
49023;SDS011;34839;-33.872;151.172;2022-11-03T03:40:12;5.85;;;0.50;;
49023;SDS011;34839;-33.872;151.172;2022-11-03T03:42:41;1.75;;;0.35;;
49023;SDS011;34839;-33.872;151.172;2022-11-03T03:45:09;0.90;;;0.20;;
49023;SDS011;34839;-33.872;151.172;2022-11-03T03:47:38;0.90;;;0.20;;
49023;SDS011;34839;-33.872;151.172;2022-11-03T03:50:05;1.65;;;0.35;;
49023;SDS011;34839;-33.872;151.172;2022-11-03T03:52:33;1.73;;;0.32;;
49023;SDS011;34839;-33.872;151.172;2022-11-03T03:55:00;2.22;;;0.20;;
49023;SDS011;34839;-33.872;151.172;2022-11-03T03:57:29;2.50;;;0.17;;
49023;SDS011;34839;-33.872;151.172;2022-11-03T03:59:57;1.17;;;0.30;;
49023;SDS011;34839;-33.872;151.172;2022-11-03T04:02:24;8.55;;;1.58;;
49023;SDS011;34839;-33.872;151.172;2022-11-03T04:04:51;4.00;;;0.47;;
49023;SDS011;34839;-33.872;151.172;2022-11-03T04:07:18;2.22;;;0.35;;
49023;SDS011;34839;-33.872;151.172;2022-11-03T04:10:04;3.70;;;0.30;;
49023;SDS011;34839;-33.872;151.172;2022-11-03T04:12:31;2.08;;;0.32;;
49023;SDS011;34839;-33.872;151.172;2022-11-03T04:15:16;2.58;;;0.40;;
49023;SDS011;34839;-33.872;151.172;2022-11-03T04:18:02;1.55;;;0.20;;
49023;SDS011;34839;-33.872;151.172;2022-11-03T04:20:47;3.10;;;0.45;;
49023;SDS011;34839;-33.872;151.172;2022-11-03T04:23:37;2.38;;;0.25;;
49023;SDS011;34839;-33.872;151.172;2022-11-03T04:26:05;2.00;;;0.40;;
49023;SDS011;34839;-33.872;151.172;2022-11-03T04:28:36;0.82;;;0.10;;
49023;SDS011;34839;-33.872;151.172;2022-11-03T04:31:05;2.92;;;0.20;;
49023;SDS011;34839;-33.872;151.172;2022-11-03T04:33:32;1.30;;;0.20;;
49023;SDS011;34839;-33.872;151.172;2022-11-03T04:35:59;2.90;;;0.25;;
49023;SDS011;34839;-33.872;151.172;2022-11-03T04:38:26;1.80;;;0.43;;
49023;SDS011;34839;-33.872;151.172;2022-11-03T04:40:58;2.90;;;0.60;;
49023;SDS011;34839;-33.872;151.172;2022-11-03T04:43:35;1.58;;;0.15;;
49023;SDS011;34839;-33.872;151.172;2022-11-03T04:46:03;1.40;;;0.10;;
49023;SDS011;34839;-33.872;151.172;2022-11-03T04:48:31;1.20;;;0.20;;
49023;SDS011;34839;-33.872;151.172;2022-11-03T04:50:59;2.08;;;0.25;;
49023;SDS011;34839;-33.872;151.172;2022-11-03T04:53:29;2.65;;;0.40;;
49023;SDS011;34839;-33.872;151.172;2022-11-03T04:55:57;2.92;;;0.60;;
49023;SDS011;34839;-33.872;151.172;2022-11-03T04:58:26;2.72;;;0.60;;
49023;SDS011;34839;-33.872;151.172;2022-11-03T05:00:55;3.00;;;0.40;;
49023;SDS011;34839;-33.872;151.172;2022-11-03T05:03:23;3.53;;;0.28;;
49023;SDS011;34839;-33.872;151.172;2022-11-03T05:05:51;1.98;;;0.20;;
49023;SDS011;34839;-33.872;151.172;2022-11-03T05:08:19;2.30;;;0.22;;
49023;SDS011;34839;-33.872;151.172;2022-11-03T05:10:47;1.52;;;0.30;;
49023;SDS011;34839;-33.872;151.172;2022-11-03T05:13:16;3.25;;;0.30;;
49023;SDS011;34839;-33.872;151.172;2022-11-03T05:15:44;1.15;;;0.30;;
49023;SDS011;34839;-33.872;151.172;2022-11-03T05:18:26;4.82;;;0.35;;
49023;SDS011;34839;-33.872;151.172;2022-11-03T05:21:14;3.63;;;0.40;;
49023;SDS011;34839;-33.872;151.172;2022-11-03T05:23:45;2.50;;;0.47;;
49023;SDS011;34839;-33.872;151.172;2022-11-03T05:26:14;2.97;;;0.40;;
49023;SDS011;34839;-33.872;151.172;2022-11-03T05:28:47;2.00;;;0.35;;
49023;SDS011;34839;-33.872;151.172;2022-11-03T05:33:43;3.97;;;0.70;;
49023;SDS011;34839;-33.872;151.172;2022-11-03T05:36:13;5.07;;;0.90;;
49023;SDS011;34839;-33.872;151.172;2022-11-03T05:38:42;5.68;;;0.75;;
49023;SDS011;34839;-33.872;151.172;2022-11-03T05:41:18;2.90;;;0.60;;
49023;SDS011;34839;-33.872;151.172;2022-11-03T05:43:47;4.90;;;1.10;;
49023;SDS011;34839;-33.872;151.172;2022-11-03T05:46:17;9.38;;;1.00;;
49023;SDS011;34839;-33.872;151.172;2022-11-03T05:48:44;4.40;;;0.80;;
49023;SDS011;34839;-33.872;151.172;2022-11-03T05:51:14;7.07;;;0.90;;
49023;SDS011;34839;-33.872;151.172;2022-11-03T05:53:44;7.30;;;1.30;;
49023;SDS011;34839;-33.872;151.172;2022-11-03T05:56:15;4.78;;;1.02;;
49023;SDS011;34839;-33.872;151.172;2022-11-03T05:58:44;3.97;;;0.80;;
49023;SDS011;34839;-33.872;151.172;2022-11-03T06:01:19;6.53;;;1.00;;
49023;SDS011;34839;-33.872;151.172;2022-11-03T06:03:50;4.85;;;0.75;;
49023;SDS011;34839;-33.872;151.172;2022-11-03T06:06:33;7.30;;;1.13;;
49023;SDS011;34839;-33.872;151.172;2022-11-03T06:09:14;7.55;;;1.25;;
49023;SDS011;34839;-33.872;151.172;2022-11-03T06:14:13;7.40;;;0.88;;
49023;SDS011;34839;-33.872;151.172;2022-11-03T06:16:41;6.70;;;0.80;;
49023;SDS011;34839;-33.872;151.172;2022-11-03T06:19:20;8.60;;;1.17;;
49023;SDS011;34839;-33.872;151.172;2022-11-03T06:21:48;6.50;;;0.93;;
49023;SDS011;34839;-33.872;151.172;2022-11-03T06:24:16;10.18;;;1.05;;
49023;SDS011;34839;-33.872;151.172;2022-11-03T06:26:43;3.53;;;0.88;;
49023;SDS011;34839;-33.872;151.172;2022-11-03T06:29:17;7.65;;;1.20;;
49023;SDS011;34839;-33.872;151.172;2022-11-03T06:34:19;3.90;;;0.80;;
49023;SDS011;34839;-33.872;151.172;2022-11-03T06:36:47;8.43;;;1.42;;
49023;SDS011;34839;-33.872;151.172;2022-11-03T06:39:21;7.57;;;1.10;;
49023;SDS011;34839;-33.872;151.172;2022-11-03T06:41:48;7.72;;;1.02;;
49023;SDS011;34839;-33.872;151.172;2022-11-03T06:44:22;8.50;;;1.08;;
49023;SDS011;34839;-33.872;151.172;2022-11-03T06:46:50;6.47;;;1.40;;
49023;SDS011;34839;-33.872;151.172;2022-11-03T06:49:35;11.73;;;1.25;;
49023;SDS011;34839;-33.872;151.172;2022-11-03T06:52:44;6.93;;;1.33;;
49023;SDS011;34839;-33.872;151.172;2022-11-03T06:57:26;6.55;;;1.50;;
49023;SDS011;34839;-33.872;151.172;2022-11-03T06:59:54;10.55;;;1.98;;
49023;SDS011;34839;-33.872;151.172;2022-11-03T07:02:31;8.00;;;1.13;;
49023;SDS011;34839;-33.872;151.172;2022-11-03T07:05:15;8.00;;;1.48;;
49023;SDS011;34839;-33.872;151.172;2022-11-03T07:07:43;12.10;;;1.60;;
49023;SDS011;34839;-33.872;151.172;2022-11-03T07:10:13;14.20;;;1.92;;
49023;SDS011;34839;-33.872;151.172;2022-11-03T07:12:41;8.88;;;1.80;;
49023;SDS011;34839;-33.872;151.172;2022-11-03T07:15:50;8.98;;;2.22;;
49023;SDS011;34839;-33.872;151.172;2022-11-03T07:18:01;9.63;;;1.45;;
49023;SDS011;34839;-33.872;151.172;2022-11-03T07:20:31;10.50;;;2.10;;
49023;SDS011;34839;-33.872;151.172;2022-11-03T07:22:59;11.63;;;1.73;;
49023;SDS011;34839;-33.872;151.172;2022-11-03T07:25:27;10.00;;;1.85;;
49023;SDS011;34839;-33.872;151.172;2022-11-03T07:27:54;7.80;;;1.55;;
49023;SDS011;34839;-33.872;151.172;2022-11-03T07:30:23;7.70;;;1.85;;
49023;SDS011;34839;-33.872;151.172;2022-11-03T07:32:54;15.20;;;2.35;;
49023;SDS011;34839;-33.872;151.172;2022-11-03T07:35:25;12.05;;;1.98;;
49023;SDS011;34839;-33.872;151.172;2022-11-03T07:37:54;12.53;;;2.17;;
49023;SDS011;34839;-33.872;151.172;2022-11-03T07:40:22;8.20;;;1.92;;
49023;SDS011;34839;-33.872;151.172;2022-11-03T07:42:49;10.93;;;2.08;;
49023;SDS011;34839;-33.872;151.172;2022-11-03T07:46:00;13.88;;;2.45;;
49023;SDS011;34839;-33.872;151.172;2022-11-03T07:50:49;11.40;;;2.67;;
49023;SDS011;34839;-33.872;151.172;2022-11-03T07:53:38;13.80;;;2.22;;
49023;SDS011;34839;-33.872;151.172;2022-11-03T07:56:12;9.40;;;2.05;;
49023;SDS011;34839;-33.872;151.172;2022-11-03T07:58:39;13.75;;;2.70;;
49023;SDS011;34839;-33.872;151.172;2022-11-03T08:01:18;10.65;;;2.20;;
49023;SDS011;34839;-33.872;151.172;2022-11-03T08:03:48;13.38;;;2.75;;
49023;SDS011;34839;-33.872;151.172;2022-11-03T08:06:16;15.20;;;2.25;;
49023;SDS011;34839;-33.872;151.172;2022-11-03T08:08:43;8.38;;;1.67;;
49023;SDS011;34839;-33.872;151.172;2022-11-03T08:11:14;16.00;;;2.63;;
49023;SDS011;34839;-33.872;151.172;2022-11-03T08:13:42;9.43;;;1.80;;
49023;SDS011;34839;-33.872;151.172;2022-11-03T08:16:09;12.48;;;1.73;;
49023;SDS011;34839;-33.872;151.172;2022-11-03T08:18:36;14.98;;;2.58;;
49023;SDS011;34839;-33.872;151.172;2022-11-03T08:21:04;10.27;;;1.73;;
49023;SDS011;34839;-33.872;151.172;2022-11-03T08:23:31;13.02;;;1.88;;
49023;SDS011;34839;-33.872;151.172;2022-11-03T08:25:58;8.77;;;1.67;;
49023;SDS011;34839;-33.872;151.172;2022-11-03T08:28:28;18.38;;;2.40;;
49023;SDS011;34839;-33.872;151.172;2022-11-03T08:30:55;11.85;;;2.33;;
49023;SDS011;34839;-33.872;151.172;2022-11-03T08:33:32;13.70;;;2.33;;
49023;SDS011;34839;-33.872;151.172;2022-11-03T08:36:01;8.13;;;1.80;;
49023;SDS011;34839;-33.872;151.172;2022-11-03T08:38:31;12.15;;;2.05;;
49023;SDS011;34839;-33.872;151.172;2022-11-03T08:40:58;12.52;;;2.35;;
49023;SDS011;34839;-33.872;151.172;2022-11-03T08:43:27;12.25;;;2.30;;
49023;SDS011;34839;-33.872;151.172;2022-11-03T08:45:54;15.65;;;2.08;;
49023;SDS011;34839;-33.872;151.172;2022-11-03T08:48:22;13.05;;;2.22;;
49023;SDS011;34839;-33.872;151.172;2022-11-03T08:50:52;15.35;;;2.15;;
49023;SDS011;34839;-33.872;151.172;2022-11-03T08:53:20;17.88;;;2.20;;
49023;SDS011;34839;-33.872;151.172;2022-11-03T08:55:47;12.75;;;2.05;;
49023;SDS011;34839;-33.872;151.172;2022-11-03T08:58:14;15.00;;;2.33;;
49023;SDS011;34839;-33.872;151.172;2022-11-03T09:00:42;14.73;;;2.60;;
49023;SDS011;34839;-33.872;151.172;2022-11-03T09:03:09;16.13;;;2.45;;
49023;SDS011;34839;-33.872;151.172;2022-11-03T09:05:36;9.35;;;2.08;;
49023;SDS011;34839;-33.872;151.172;2022-11-03T09:08:03;13.73;;;2.30;;
49023;SDS011;34839;-33.872;151.172;2022-11-03T09:10:31;13.55;;;2.70;;
49023;SDS011;34839;-33.872;151.172;2022-11-03T09:12:59;12.68;;;2.55;;
49023;SDS011;34839;-33.872;151.172;2022-11-03T09:15:26;10.50;;;1.83;;
49023;SDS011;34839;-33.872;151.172;2022-11-03T09:17:53;17.42;;;2.42;;
49023;SDS011;34839;-33.872;151.172;2022-11-03T09:20:21;14.00;;;2.28;;
49023;SDS011;34839;-33.872;151.172;2022-11-03T09:22:48;13.82;;;2.33;;
49023;SDS011;34839;-33.872;151.172;2022-11-03T09:25:15;12.45;;;2.17;;
49023;SDS011;34839;-33.872;151.172;2022-11-03T09:27:42;13.73;;;2.13;;
49023;SDS011;34839;-33.872;151.172;2022-11-03T09:30:10;10.55;;;2.53;;
49023;SDS011;34839;-33.872;151.172;2022-11-03T09:32:37;14.60;;;2.95;;
49023;SDS011;34839;-33.872;151.172;2022-11-03T09:35:05;16.83;;;3.00;;
49023;SDS011;34839;-33.872;151.172;2022-11-03T09:37:34;12.25;;;2.63;;
49023;SDS011;34839;-33.872;151.172;2022-11-03T09:40:02;13.25;;;2.70;;
49023;SDS011;34839;-33.872;151.172;2022-11-03T09:42:30;8.50;;;1.75;;
49023;SDS011;34839;-33.872;151.172;2022-11-03T09:44:58;14.43;;;2.58;;
49023;SDS011;34839;-33.872;151.172;2022-11-03T09:47:28;14.05;;;2.60;;
49023;SDS011;34839;-33.872;151.172;2022-11-03T09:49:56;11.73;;;2.67;;
49023;SDS011;34839;-33.872;151.172;2022-11-03T09:52:24;10.20;;;2.20;;
49023;SDS011;34839;-33.872;151.172;2022-11-03T09:54:51;15.32;;;2.15;;
49023;SDS011;34839;-33.872;151.172;2022-11-03T09:57:22;6.65;;;1.40;;
49023;SDS011;34839;-33.872;151.172;2022-11-03T09:59:52;13.45;;;2.13;;
49023;SDS011;34839;-33.872;151.172;2022-11-03T10:02:29;13.32;;;2.70;;
49023;SDS011;34839;-33.872;151.172;2022-11-03T10:04:57;13.70;;;2.47;;
49023;SDS011;34839;-33.872;151.172;2022-11-03T10:07:25;11.60;;;2.25;;
49023;SDS011;34839;-33.872;151.172;2022-11-03T10:09:53;14.90;;;2.58;;
49023;SDS011;34839;-33.872;151.172;2022-11-03T10:12:22;13.98;;;2.22;;
49023;SDS011;34839;-33.872;151.172;2022-11-03T10:14:50;16.30;;;3.10;;
49023;SDS011;34839;-33.872;151.172;2022-11-03T10:17:18;14.15;;;2.50;;
49023;SDS011;34839;-33.872;151.172;2022-11-03T10:19:50;11.35;;;2.45;;
49023;SDS011;34839;-33.872;151.172;2022-11-03T10:22:20;14.73;;;3.10;;
49023;SDS011;34839;-33.872;151.172;2022-11-03T10:24:47;11.23;;;1.95;;
49023;SDS011;34839;-33.872;151.172;2022-11-03T10:27:22;11.60;;;2.47;;
49023;SDS011;34839;-33.872;151.172;2022-11-03T10:30:11;10.95;;;2.33;;
49023;SDS011;34839;-33.872;151.172;2022-11-03T10:32:38;19.08;;;2.53;;
49023;SDS011;34839;-33.872;151.172;2022-11-03T10:37:51;10.52;;;1.98;;
49023;SDS011;34839;-33.872;151.172;2022-11-03T10:40:34;8.18;;;1.67;;
49023;SDS011;34839;-33.872;151.172;2022-11-03T10:43:01;17.10;;;2.35;;
49023;SDS011;34839;-33.872;151.172;2022-11-03T10:45:28;9.50;;;1.73;;
49023;SDS011;34839;-33.872;151.172;2022-11-03T10:47:59;18.23;;;2.53;;
49023;SDS011;34839;-33.872;151.172;2022-11-03T10:50:47;10.93;;;2.80;;
49023;SDS011;34839;-33.872;151.172;2022-11-03T10:53:26;9.88;;;2.45;;
49023;SDS011;34839;-33.872;151.172;2022-11-03T10:56:13;9.07;;;2.10;;
49023;SDS011;34839;-33.872;151.172;2022-11-03T10:58:40;14.27;;;2.90;;
49023;SDS011;34839;-33.872;151.172;2022-11-03T11:01:08;12.15;;;2.80;;
49023;SDS011;34839;-33.872;151.172;2022-11-03T11:03:38;12.13;;;3.28;;
49023;SDS011;34839;-33.872;151.172;2022-11-03T11:06:28;13.10;;;2.80;;
49023;SDS011;34839;-33.872;151.172;2022-11-03T11:08:57;12.10;;;3.08;;
49023;SDS011;34839;-33.872;151.172;2022-11-03T11:11:26;9.35;;;2.13;;
49023;SDS011;34839;-33.872;151.172;2022-11-03T11:19:15;12.07;;;2.05;;
49023;SDS011;34839;-33.872;151.172;2022-11-03T11:24:10;13.70;;;2.13;;
49023;SDS011;34839;-33.872;151.172;2022-11-03T11:26:37;14.55;;;2.58;;
49023;SDS011;34839;-33.872;151.172;2022-11-03T11:36:35;12.45;;;2.17;;
49023;SDS011;34839;-33.872;151.172;2022-11-03T11:39:03;10.80;;;2.17;;
49023;SDS011;34839;-33.872;151.172;2022-11-03T11:49:47;11.00;;;1.90;;
49023;SDS011;34839;-33.872;151.172;2022-11-03T11:52:14;8.85;;;2.60;;
49023;SDS011;34839;-33.872;151.172;2022-11-03T11:54:41;11.70;;;2.33;;
49023;SDS011;34839;-33.872;151.172;2022-11-03T11:57:16;14.00;;;2.70;;
49023;SDS011;34839;-33.872;151.172;2022-11-03T11:59:44;13.40;;;2.28;;
49023;SDS011;34839;-33.872;151.172;2022-11-03T12:02:17;12.52;;;2.47;;
49023;SDS011;34839;-33.872;151.172;2022-11-03T12:04:45;8.27;;;2.10;;
49023;SDS011;34839;-33.872;151.172;2022-11-03T12:07:13;10.93;;;2.45;;
49023;SDS011;34839;-33.872;151.172;2022-11-03T12:09:40;16.02;;;2.85;;
49023;SDS011;34839;-33.872;151.172;2022-11-03T12:12:07;11.93;;;1.90;;
49023;SDS011;34839;-33.872;151.172;2022-11-03T12:19:46;15.48;;;3.15;;
49023;SDS011;34839;-33.872;151.172;2022-11-03T12:29:56;10.07;;;2.30;;
49023;SDS011;34839;-33.872;151.172;2022-11-03T12:32:27;12.15;;;2.83;;
49023;SDS011;34839;-33.872;151.172;2022-11-03T12:34:54;11.80;;;2.15;;
49023;SDS011;34839;-33.872;151.172;2022-11-03T12:37:21;14.07;;;2.33;;
49023;SDS011;34839;-33.872;151.172;2022-11-03T12:39:49;13.43;;;2.10;;
49023;SDS011;34839;-33.872;151.172;2022-11-03T12:42:16;11.95;;;2.25;;
49023;SDS011;34839;-33.872;151.172;2022-11-03T12:44:44;11.57;;;2.33;;
49023;SDS011;34839;-33.872;151.172;2022-11-03T12:47:11;12.27;;;2.38;;
49023;SDS011;34839;-33.872;151.172;2022-11-03T12:49:39;9.25;;;2.45;;
49023;SDS011;34839;-33.872;151.172;2022-11-03T12:52:06;8.50;;;2.45;;
49023;SDS011;34839;-33.872;151.172;2022-11-03T12:54:35;14.70;;;2.10;;
49023;SDS011;34839;-33.872;151.172;2022-11-03T12:57:02;14.10;;;3.33;;
49023;SDS011;34839;-33.872;151.172;2022-11-03T12:59:29;9.57;;;2.55;;
49023;SDS011;34839;-33.872;151.172;2022-11-03T13:01:56;9.73;;;1.92;;
49023;SDS011;34839;-33.872;151.172;2022-11-03T13:04:24;12.38;;;2.65;;
49023;SDS011;34839;-33.872;151.172;2022-11-03T13:06:51;17.95;;;2.75;;
49023;SDS011;34839;-33.872;151.172;2022-11-03T13:09:18;12.70;;;2.03;;
49023;SDS011;34839;-33.872;151.172;2022-11-03T13:11:45;13.02;;;2.75;;
49023;SDS011;34839;-33.872;151.172;2022-11-03T13:14:31;13.02;;;2.28;;
49023;SDS011;34839;-33.872;151.172;2022-11-03T13:16:58;17.50;;;2.88;;
49023;SDS011;34839;-33.872;151.172;2022-11-03T13:19:28;11.50;;;2.42;;
49023;SDS011;34839;-33.872;151.172;2022-11-03T13:21:55;14.00;;;2.38;;
49023;SDS011;34839;-33.872;151.172;2022-11-03T13:24:22;12.80;;;2.38;;
49023;SDS011;34839;-33.872;151.172;2022-11-03T13:26:49;14.73;;;2.45;;
49023;SDS011;34839;-33.872;151.172;2022-11-03T13:29:16;16.92;;;3.10;;
49023;SDS011;34839;-33.872;151.172;2022-11-03T13:31:44;16.45;;;2.90;;
49023;SDS011;34839;-33.872;151.172;2022-11-03T13:34:11;13.27;;;2.00;;
49023;SDS011;34839;-33.872;151.172;2022-11-03T13:36:38;13.02;;;2.47;;
49023;SDS011;34839;-33.872;151.172;2022-11-03T13:39:06;15.25;;;2.58;;
49023;SDS011;34839;-33.872;151.172;2022-11-03T13:41:33;15.63;;;2.55;;
49023;SDS011;34839;-33.872;151.172;2022-11-03T13:44:00;13.35;;;2.30;;
49023;SDS011;34839;-33.872;151.172;2022-11-03T13:46:27;15.32;;;2.50;;
49023;SDS011;34839;-33.872;151.172;2022-11-03T13:48:54;14.60;;;2.47;;
49023;SDS011;34839;-33.872;151.172;2022-11-03T13:51:22;17.63;;;2.38;;
49023;SDS011;34839;-33.872;151.172;2022-11-03T13:53:49;12.38;;;2.30;;
49023;SDS011;34839;-33.872;151.172;2022-11-03T13:56:16;10.02;;;2.33;;
49023;SDS011;34839;-33.872;151.172;2022-11-03T13:58:43;15.77;;;2.42;;
49023;SDS011;34839;-33.872;151.172;2022-11-03T14:01:10;13.75;;;1.92;;
49023;SDS011;34839;-33.872;151.172;2022-11-03T14:03:37;12.18;;;2.65;;
49023;SDS011;34839;-33.872;151.172;2022-11-03T14:06:05;18.42;;;2.33;;
49023;SDS011;34839;-33.872;151.172;2022-11-03T14:08:32;9.73;;;2.65;;
49023;SDS011;34839;-33.872;151.172;2022-11-03T14:10:59;13.70;;;2.90;;
49023;SDS011;34839;-33.872;151.172;2022-11-03T14:13:49;10.82;;;2.10;;
49023;SDS011;34839;-33.872;151.172;2022-11-03T14:16:16;10.57;;;2.20;;
49023;SDS011;34839;-33.872;151.172;2022-11-03T14:18:43;13.25;;;2.28;;
49023;SDS011;34839;-33.872;151.172;2022-11-03T14:21:11;15.15;;;2.50;;
49023;SDS011;34839;-33.872;151.172;2022-11-03T14:23:38;12.48;;;2.65;;
49023;SDS011;34839;-33.872;151.172;2022-11-03T14:26:05;9.60;;;1.60;;
49023;SDS011;34839;-33.872;151.172;2022-11-03T14:28:32;9.40;;;2.13;;
49023;SDS011;34839;-33.872;151.172;2022-11-03T14:30:59;10.00;;;1.67;;
49023;SDS011;34839;-33.872;151.172;2022-11-03T14:33:28;13.80;;;2.15;;
49023;SDS011;34839;-33.872;151.172;2022-11-03T14:35:55;11.32;;;1.88;;
49023;SDS011;34839;-33.872;151.172;2022-11-03T14:38:23;16.50;;;2.42;;
49023;SDS011;34839;-33.872;151.172;2022-11-03T14:40:50;10.88;;;2.40;;
49023;SDS011;34839;-33.872;151.172;2022-11-03T14:43:35;13.40;;;1.90;;
49023;SDS011;34839;-33.872;151.172;2022-11-03T14:46:02;10.77;;;1.80;;
49023;SDS011;34839;-33.872;151.172;2022-11-03T14:48:30;7.70;;;1.92;;
49023;SDS011;34839;-33.872;151.172;2022-11-03T14:50:57;14.25;;;2.17;;
49023;SDS011;34839;-33.872;151.172;2022-11-03T14:53:24;8.45;;;2.30;;
49023;SDS011;34839;-33.872;151.172;2022-11-03T14:55:51;9.90;;;1.75;;
49023;SDS011;34839;-33.872;151.172;2022-11-03T14:58:18;11.40;;;1.65;;
49023;SDS011;34839;-33.872;151.172;2022-11-03T15:00:45;10.07;;;1.80;;
49023;SDS011;34839;-33.872;151.172;2022-11-03T15:03:13;9.85;;;2.47;;
49023;SDS011;34839;-33.872;151.172;2022-11-03T15:05:40;10.93;;;1.70;;
49023;SDS011;34839;-33.872;151.172;2022-11-03T15:08:16;13.25;;;2.28;;
49023;SDS011;34839;-33.872;151.172;2022-11-03T15:10:44;14.63;;;2.20;;
49023;SDS011;34839;-33.872;151.172;2022-11-03T15:13:11;12.63;;;1.88;;
49023;SDS011;34839;-33.872;151.172;2022-11-03T15:15:38;16.73;;;2.00;;
49023;SDS011;34839;-33.872;151.172;2022-11-03T15:18:06;9.90;;;1.67;;
49023;SDS011;34839;-33.872;151.172;2022-11-03T15:20:33;7.82;;;1.70;;
49023;SDS011;34839;-33.872;151.172;2022-11-03T15:23:01;10.10;;;2.20;;